Cegled, Hungary
Current Conditions -  °F | °C
As of 7:45 PM on Saturday 25 Oct 2014 (Local Time) from LHKE Reporting Station
Clear Clear  
Wind Chill: 38°   Ceiling: Unl
Heat Index: 41°   Visibility: 5mi
Dew Point: 41°   Wind: 5mph
Humidity: 100%   Direction: 320°NW
Pressure: 30.27"   Gusts: NA
Location:  47.18°N, 19.78°E
Report Text: LHKE 251745Z 32004KT 8000 NSC 05/05 Q1025 BECMG 5000 RMK BLU
Loading
Personal Weather Stations






























Interactive Weather Map
Tropical Storm Tracking
New forecast layout! Learn more

10-Day Weather Forecast

Advertisements
Track Severe Weather on mobile